Time;durP1;ratioP1;P1;durP2;ratioP2;P2;SDS_P1;SDS_P2;PMS_P1;PMS_P2;Temp;Humidity;BMP_temperature;BMP_pressure;BME280_temperature;BME280_humidity;BME280_pressure;Samples;Min_cycle;Max_cycle;Signal;HPM_P1;HPM_P2
2024/01/10 01:39:30;;;;;;;;;;;-4.90;99.90;;;;;;5092408;28;20309;-65
2024/01/10 01:41:56;;;;;;;;;;;-4.90;99.90;;;;;;5084961;28;19924;-65
2024/01/10 01:44:21;;;;;;;;;;;-4.90;99.90;;;;;;5075276;28;20028;-65
2024/01/10 01:46:47;;;;;;;;;;;-4.90;99.90;;;;;;5084803;28;20386;-65
2024/01/10 01:49:14;;;;;;;;;;;-4.90;99.90;;;;;;5079873;28;19949;-66
2024/01/10 01:51:40;;;;;;;;;;;-4.90;99.90;;;;;;5084745;28;19935;-66
2024/01/10 01:54:08;;;;;;;;;;;-4.90;99.90;;;;;;5086519;28;19928;-66
2024/01/10 01:56:35;;;;;;;;;;;-4.80;99.90;;;;;;5087919;28;19920;-66
2024/01/10 01:59:01;;;;;;;;;;;-4.80;99.90;;;;;;5088054;28;19920;-65
2024/01/10 02:01:27;;;;;;;;;;;-4.80;99.90;;;;;;5089971;28;20363;-66
2024/01/10 02:03:53;;;;;;;;;;;-4.80;99.90;;;;;;5086857;28;19928;-66
2024/01/10 02:06:19;;;;;;;;;;;-4.80;99.90;;;;;;5069920;28;20394;-66
2024/01/10 02:08:44;;;;;;;;;;;-4.80;99.90;;;;;;5100358;27;20003;-66
2024/01/10 02:11:10;;;;;;;;;;;-4.80;99.90;;;;;;5087799;28;19939;-66
2024/01/10 02:13:35;;;;;;;;;;;-4.80;99.90;;;;;;5095749;28;20107;-66
2024/01/10 02:16:03;;;;;;;;;;;-4.80;99.90;;;;;;5076152;28;19924;-66
2024/01/10 02:18:28;;;;;;;;;;;-4.70;99.90;;;;;;5085243;28;20022;-66
2024/01/10 02:20:54;;;;;;;;;;;-4.80;99.90;;;;;;5082971;28;19976;-66
2024/01/10 02:23:19;;;;;;;;;;;-4.80;99.90;;;;;;5090331;28;19990;-66
2024/01/10 02:25:45;;;;;;;;;;;-4.80;99.90;;;;;;5111782;28;19949;-66
2024/01/10 02:28:11;;;;;;;;;;;-4.80;99.90;;;;;;5091351;28;19930;-66
2024/01/10 02:30:37;;;;;;;;;;;-4.80;99.90;;;;;;5082578;28;19928;-67
2024/01/10 02:33:03;;;;;;;;;;;-4.80;99.90;;;;;;5083185;28;19931;-66
2024/01/10 02:35:29;;;;;;;;;;;-4.80;99.90;;;;;;5086639;28;19963;-66
2024/01/10 02:37:55;;;;;;;;;;;-4.80;99.90;;;;;;5082586;28;20652;-66
2024/01/10 02:40:20;;;;;;;;;;;-4.70;99.90;;;;;;5056130;28;20058;-66
2024/01/10 02:42:46;;;;;;;;;;;-4.70;99.90;;;;;;5059723;28;20014;-66
2024/01/10 02:45:12;;;;;;;;;;;-4.70;99.90;;;;;;5071216;28;20306;-66
2024/01/10 02:47:37;;;;;;;;;;;-4.80;99.90;;;;;;5037967;28;20014;-66
2024/01/10 02:50:04;;;;;;;;;;;-4.70;99.90;;;;;;5073694;28;19924;-66
2024/01/10 02:52:30;;;;;;;;;;;-4.70;99.90;;;;;;5065610;28;19939;-66
2024/01/10 02:54:56;;;;;;;;;;;-4.70;99.90;;;;;;5065912;28;19928;-66
2024/01/10 02:57:21;;;;;;;;;;;-4.70;99.90;;;;;;5071895;28;20027;-66
2024/01/10 02:59:47;;;;;;;;;;;-4.80;99.90;;;;;;5044943;28;19924;-66
2024/01/10 03:02:12;;;;;;;;;;;-4.70;99.90;;;;;;5057577;28;20424;-66
2024/01/10 03:04:38;;;;;;;;;;;-4.70;99.90;;;;;;5056416;28;19934;-66
2024/01/10 03:07:04;;;;;;;;;;;-4.70;99.90;;;;;;5069673;28;19924;-66
2024/01/10 03:09:29;;;;;;;;;;;-4.70;99.90;;;;;;5049939;28;19934;-66
2024/01/10 03:11:55;;;;;;;;;;;-4.70;99.90;;;;;;5049614;28;20016;-67
2024/01/10 03:14:21;;;;;;;;;;;-4.70;99.90;;;;;;5069343;28;19924;-66
2024/01/10 03:16:47;;;;;;;;;;;-4.70;99.90;;;;;;5062108;28;20738;-66
2024/01/10 03:19:13;;;;;;;;;;;-4.70;99.90;;;;;;5068547;28;20508;-66
2024/01/10 03:21:39;;;;;;;;;;;-4.70;99.90;;;;;;5062272;28;19993;-66
2024/01/10 03:24:05;;;;;;;;;;;-4.70;99.90;;;;;;5061826;28;19928;-66
2024/01/10 03:26:30;;;;;;;;;;;-4.70;99.90;;;;;;5064202;28;19928;-66
2024/01/10 03:28:57;;;;;;;;;;;-4.70;99.90;;;;;;5069303;28;20133;-66
2024/01/10 03:31:23;;;;;;;;;;;-4.70;99.90;;;;;;5066463;28;19932;-66
2024/01/10 03:33:48;;;;;;;;;;;-4.70;99.90;;;;;;5061904;28;19930;-66
2024/01/10 03:36:17;;;;;;;;;;;-4.70;99.90;;;;;;5053694;28;19928;-67
2024/01/10 03:38:43;;;;;;;;;;;-4.80;99.90;;;;;;5054458;28;20302;-66
2024/01/10 03:41:19;;;;;;;;;;;-4.70;99.90;;;;;;5074974;28;19932;-66
2024/01/10 03:43:45;;;;;;;;;;;-4.80;99.90;;;;;;5067453;28;19973;-66
2024/01/10 03:46:11;;;;;;;;;;;-4.80;99.90;;;;;;5068715;28;20709;-66
2024/01/10 03:48:38;;;;;;;;;;;-4.80;99.90;;;;;;5054025;28;20445;-66
2024/01/10 03:51:04;;;;;;;;;;;-4.80;99.90;;;;;;5058140;28;19928;-66
2024/01/10 03:53:30;;;;;;;;;;;-4.80;99.90;;;;;;5065326;28;19997;-66
2024/01/10 03:55:55;;;;;;;;;;;-4.80;99.90;;;;;;5068549;28;21037;-66
2024/01/10 03:58:21;;;;;;;;;;;-4.80;99.90;;;;;;5067554;28;20151;-66
2024/01/10 04:00:47;;;;;;;;;;;-4.80;99.90;;;;;;5069594;28;19924;-66
2024/01/10 04:03:12;;;;;;;;;;;-4.80;99.90;;;;;;5071527;28;19920;-66
2024/01/10 04:05:38;;;;;;;;;;;-4.80;99.90;;;;;;5055692;28;19928;-66
2024/01/10 04:08:04;;;;;;;;;;;-4.80;99.90;;;;;;5063999;28;19997;-66
2024/01/10 04:10:29;;;;;;;;;;;-4.80;99.90;;;;;;5066987;27;19924;-66
2024/01/10 04:12:55;;;;;;;;;;;-4.80;99.90;;;;;;5088835;28;19986;-66
2024/01/10 04:15:20;;;;;;;;;;;-4.90;99.90;;;;;;5071567;28;19924;-66
2024/01/10 04:17:46;;;;;;;;;;;-4.90;99.90;;;;;;5065100;28;20847;-66
2024/01/10 04:20:11;;;;;;;;;;;-4.80;99.90;;;;;;5069287;28;19931;-66
2024/01/10 04:22:37;;;;;;;;;;;-4.90;99.90;;;;;;5063664;28;19919;-67
2024/01/10 04:25:05;;;;;;;;;;;-4.80;99.90;;;;;;5073879;28;19927;-66
2024/01/10 04:27:30;;;;;;;;;;;-4.90;99.90;;;;;;5054259;28;20541;-66
2024/01/10 04:29:56;;;;;;;;;;;-4.90;99.90;;;;;;5069274;28;20595;-67
2024/01/10 04:32:21;;;;;;;;;;;-4.90;99.90;;;;;;5046301;28;20412;-66
2024/01/10 04:34:47;;;;;;;;;;;-4.90;99.90;;;;;;5072260;28;19928;-66
2024/01/10 04:37:14;;;;;;;;;;;-4.80;99.90;;;;;;5055357;27;19966;-66
2024/01/10 04:39:40;;;;;;;;;;;-4.90;99.90;;;;;;5095000;27;20374;-66
2024/01/10 04:42:05;;;;;;;;;;;-4.90;99.90;;;;;;5083953;27;19935;-66
2024/01/10 04:44:31;;;;;;;;;;;-4.90;99.90;;;;;;5085968;27;20290;-66
2024/01/10 04:46:56;;;;;;;;;;;-4.90;99.90;;;;;;5074735;27;20563;-66
2024/01/10 04:49:22;;;;;;;;;;;-4.90;99.90;;;;;;5084402;27;19927;-66
2024/01/10 04:51:48;;;;;;;;;;;-4.90;99.90;;;;;;5085340;27;19959;-66
2024/01/10 04:54:14;;;;;;;;;;;-4.90;99.90;;;;;;5086097;27;19974;-66
2024/01/10 04:56:39;;;;;;;;;;;-4.90;99.90;;;;;;5085437;27;20008;-66
2024/01/10 04:59:06;;;;;;;;;;;-4.90;99.90;;;;;;5056897;27;20597;-66
2024/01/10 05:01:31;;;;;;;;;;;-4.90;99.90;;;;;;5102192;27;20545;-66
2024/01/10 05:03:57;;;;;;;;;;;-4.90;99.90;;;;;;5084605;27;19938;-66
2024/01/10 05:06:23;;;;;;;;;;;-4.90;99.90;;;;;;5068733;27;19920;-66
2024/01/10 05:08:49;;;;;;;;;;;-4.90;99.90;;;;;;5067493;27;20836;-66
2024/01/10 05:11:15;;;;;;;;;;;-4.90;99.90;;;;;;5089972;27;19932;-66
2024/01/10 05:13:40;;;;;;;;;;;-4.90;99.90;;;;;;5084581;27;20615;-66
2024/01/10 05:16:06;;;;;;;;;;;-4.90;99.90;;;;;;5076014;27;19930;-66
2024/01/10 05:18:31;;;;;;;;;;;-4.90;99.90;;;;;;5070157;27;19927;-66
2024/01/10 05:20:58;;;;;;;;;;;-4.90;99.90;;;;;;5085764;27;19927;-66
2024/01/10 05:23:23;;;;;;;;;;;-4.90;99.90;;;;;;5087188;27;19923;-66
2024/01/10 05:25:49;;;;;;;;;;;-4.90;99.90;;;;;;5089291;27;20427;-66
2024/01/10 05:28:15;;;;;;;;;;;-4.90;99.90;;;;;;5082168;27;19923;-67
2024/01/10 05:30:42;;;;;;;;;;;-4.90;99.90;;;;;;5088200;27;19935;-66
2024/01/10 05:33:08;;;;;;;;;;;-4.90;99.90;;;;;;5078385;27;20458;-66
2024/01/10 05:35:35;;;;;;;;;;;-5.00;99.90;;;;;;5075412;27;19923;-66
2024/01/10 05:38:02;;;;;;;;;;;-5.00;99.90;;;;;;5086749;27;19923;-66
2024/01/10 05:40:29;;;;;;;;;;;-5.00;99.90;;;;;;5080461;27;20023;-66
2024/01/10 05:42:55;;;;;;;;;;;-5.00;99.90;;;;;;5081395;28;20670;-67
2024/01/10 05:45:21;;;;;;;;;;;-5.00;99.90;;;;;;5083236;27;19923;-66
2024/01/10 05:47:48;;;;;;;;;;;-5.00;99.90;;;;;;5087010;27;20451;-66
2024/01/10 05:50:13;;;;;;;;;;;-5.00;99.90;;;;;;5084761;27;20397;-66
2024/01/10 05:52:39;;;;;;;;;;;-4.90;99.90;;;;;;5077924;27;19928;-66
2024/01/10 05:55:06;;;;;;;;;;;-5.00;99.90;;;;;;5079313;27;19962;-66
2024/01/10 05:57:32;;;;;;;;;;;-5.00;99.90;;;;;;5075198;27;19976;-66
2024/01/10 05:59:57;;;;;;;;;;;-5.00;99.90;;;;;;5067268;27;20354;-66
2024/01/10 06:02:24;;;;;;;;;;;-5.10;99.90;;;;;;5059281;27;20022;-66
2024/01/10 06:04:49;;;;;;;;;;;-5.10;99.90;;;;;;5071608;27;19935;-67
2024/01/10 06:07:15;;;;;;;;;;;-5.10;99.90;;;;;;5076120;28;19923;-66
2024/01/10 06:09:41;;;;;;;;;;;-5.10;99.90;;;;;;5080549;27;19973;-66
2024/01/10 06:12:06;;;;;;;;;;;-5.10;99.90;;;;;;5084034;27;19934;-66
2024/01/10 06:14:32;;;;;;;;;;;-5.10;99.90;;;;;;5063768;28;19972;-66
2024/01/10 06:16:59;;;;;;;;;;;-5.10;99.90;;;;;;5080678;28;20440;-66
2024/01/10 06:19:25;;;;;;;;;;;-5.10;99.90;;;;;;5067034;28;19923;-66
2024/01/10 06:21:52;;;;;;;;;;;-5.10;99.90;;;;;;5065223;28;19931;-66
2024/01/10 06:24:17;;;;;;;;;;;-5.10;99.90;;;;;;5073580;28;20020;-66
2024/01/10 06:26:43;;;;;;;;;;;-5.10;99.90;;;;;;5065223;28;20384;-66
2024/01/10 06:29:08;;;;;;;;;;;-5.10;99.90;;;;;;5078762;28;20381;-66
2024/01/10 06:31:34;;;;;;;;;;;-5.10;99.90;;;;;;5083375;28;19928;-66
2024/01/10 06:34:00;;;;;;;;;;;-5.10;99.90;;;;;;5080229;28;20155;-66
2024/01/10 06:36:26;;;;;;;;;;;-5.10;99.90;;;;;;5079313;28;19927;-66
2024/01/10 06:38:51;;;;;;;;;;;-5.10;99.90;;;;;;5061092;28;20442;-66
2024/01/10 06:41:17;;;;;;;;;;;-5.10;99.90;;;;;;5053325;28;19987;-66
2024/01/10 06:43:42;;;;;;;;;;;-5.10;99.90;;;;;;5068014;28;19924;-66
2024/01/10 06:46:10;;;;;;;;;;;-5.00;99.90;;;;;;5058249;28;19935;-66
2024/01/10 06:48:35;;;;;;;;;;;-5.20;99.90;;;;;;5065486;28;20002;-66
2024/01/10 06:51:01;;;;;;;;;;;-5.10;99.90;;;;;;5042679;28;19970;-66
2024/01/10 06:53:26;;;;;;;;;;;-5.20;99.90;;;;;;5066267;28;19971;-66
2024/01/10 06:55:52;;;;;;;;;;;-5.10;99.90;;;;;;5072385;28;19924;-66
2024/01/10 06:58:18;;;;;;;;;;;-5.10;99.90;;;;;;5078925;28;19923;-67
2024/01/10 07:00:43;;;;;;;;;;;-5.10;99.90;;;;;;5071778;28;19930;-66
2024/01/10 07:03:09;;;;;;;;;;;-5.20;99.90;;;;;;5071649;28;19931;-66
2024/01/10 07:05:34;;;;;;;;;;;-5.20;99.90;;;;;;5074405;28;19928;-66
2024/01/10 07:08:02;;;;;;;;;;;-5.10;99.90;;;;;;5073903;28;19946;-66
2024/01/10 07:10:28;;;;;;;;;;;-5.20;99.90;;;;;;5099847;28;19932;-66
2024/01/10 07:12:57;;;;;;;;;;;-5.20;99.90;;;;;;5077056;28;20593;-66
2024/01/10 07:15:23;;;;;;;;;;;-5.20;99.90;;;;;;5070106;28;20012;-66
2024/01/10 07:17:48;;;;;;;;;;;-5.20;99.90;;;;;;5051683;28;20026;-66
2024/01/10 07:20:14;;;;;;;;;;;-5.20;99.90;;;;;;5081451;28;20050;-66
2024/01/10 07:22:43;;;;;;;;;;;-5.20;99.90;;;;;;5082108;28;20423;-67
2024/01/10 07:25:14;;;;;;;;;;;-5.20;99.90;;;;;;5072474;28;20022;-66
2024/01/10 07:27:43;;;;;;;;;;;-5.20;99.90;;;;;;5069843;28;19973;-66
2024/01/10 07:30:13;;;;;;;;;;;-5.20;99.90;;;;;;5075733;28;21136;-66
2024/01/10 07:32:39;;;;;;;;;;;-5.10;99.90;;;;;;5071653;28;20425;-66
2024/01/10 07:35:08;;;;;;;;;;;-5.20;99.90;;;;;;5077388;28;19961;-66
2024/01/10 07:37:34;;;;;;;;;;;-5.20;99.90;;;;;;5093024;28;19920;-66
2024/01/10 07:40:00;;;;;;;;;;;-5.20;99.90;;;;;;5070338;28;20007;-67
2024/01/10 07:42:25;;;;;;;;;;;-5.20;99.90;;;;;;5052668;28;19924;-66
2024/01/10 07:44:53;;;;;;;;;;;-5.10;99.90;;;;;;5072961;28;19932;-67
2024/01/10 07:47:19;;;;;;;;;;;-5.10;99.90;;;;;;5075980;28;20405;-67
2024/01/10 07:49:45;;;;;;;;;;;-5.10;99.90;;;;;;5062505;28;19939;-67
2024/01/10 07:52:10;;;;;;;;;;;-5.10;99.90;;;;;;5065672;28;19932;-66
2024/01/10 07:54:36;;;;;;;;;;;-5.10;99.90;;;;;;5065435;28;20007;-63
2024/01/10 07:57:02;;;;;;;;;;;-5.10;99.90;;;;;;5067971;28;19939;-64
2024/01/10 07:59:27;;;;;;;;;;;-5.10;99.90;;;;;;5061353;28;20405;-63
2024/01/10 08:01:58;;;;;;;;;;;-5.10;99.90;;;;;;5069793;28;19927;-63
2024/01/10 08:04:24;;;;;;;;;;;-5.10;99.90;;;;;;5059030;28;23515;-64
2024/01/10 08:06:50;;;;;;;;;;;-5.10;99.90;;;;;;5069894;28;19928;-63
2024/01/10 08:09:15;;;;;;;;;;;-5.10;99.90;;;;;;5065831;28;19927;-63
2024/01/10 08:11:41;;;;;;;;;;;-5.10;99.90;;;;;;5061952;28;19928;-63
2024/01/10 08:14:07;;;;;;;;;;;-5.10;99.90;;;;;;5080263;28;20400;-63
2024/01/10 08:16:32;;;;;;;;;;;-5.10;99.90;;;;;;5057132;28;19928;-63
2024/01/10 08:18:58;;;;;;;;;;;-5.10;99.90;;;;;;5063912;28;19920;-63
2024/01/10 08:21:25;;;;;;;;;;;-5.10;99.90;;;;;;5061944;28;19923;-64
2024/01/10 08:23:50;;;;;;;;;;;-5.10;99.90;;;;;;5072700;28;19934;-63
2024/01/10 08:26:16;;;;;;;;;;;-5.10;99.90;;;;;;5071105;28;20576;-64
2024/01/10 08:28:42;;;;;;;;;;;-5.10;99.90;;;;;;5070124;28;19924;-64
2024/01/10 08:31:08;;;;;;;;;;;-5.00;99.90;;;;;;5068610;28;19933;-64
2024/01/10 08:33:33;;;;;;;;;;;-5.00;99.90;;;;;;5074349;28;19924;-64
2024/01/10 08:35:59;;;;;;;;;;;-5.00;99.90;;;;;;5072889;28;19919;-64
2024/01/10 08:38:25;;;;;;;;;;;-5.00;99.90;;;;;;5072333;28;19930;-64
2024/01/10 08:40:50;;;;;;;;;;;-5.00;99.90;;;;;;5091514;28;19923;-63
2024/01/10 08:43:17;;;;;;;;;;;-5.00;99.90;;;;;;5087416;28;20310;-63
2024/01/10 08:45:43;;;;;;;;;;;-5.00;99.90;;;;;;5077624;28;19975;-63
2024/01/10 08:48:11;;;;;;;;;;;-4.90;99.90;;;;;;5069939;28;19930;-63
2024/01/10 08:50:37;;;;;;;;;;;-5.00;99.90;;;;;;5081797;28;19928;-64
2024/01/10 08:53:05;;;;;;;;;;;-4.90;99.90;;;;;;5087818;28;19927;-63
2024/01/10 08:55:31;;;;;;;;;;;-4.90;99.90;;;;;;5071111;28;20351;-63
2024/01/10 08:57:56;;;;;;;;;;;-4.80;99.90;;;;;;5079324;28;19931;-63
2024/01/10 09:00:24;;;;;;;;;;;-4.80;99.90;;;;;;5061605;28;19924;-63
2024/01/10 09:02:50;;;;;;;;;;;-4.80;99.90;;;;;;5077336;28;19927;-63
2024/01/10 09:05:15;;;;;;;;;;;-4.80;99.90;;;;;;5093047;27;19926;-64
2024/01/10 09:07:42;;;;;;;;;;;-4.70;99.90;;;;;;5070914;28;20306;-64
2024/01/10 09:10:08;;;;;;;;;;;-4.70;99.90;;;;;;5072314;28;19946;-63
2024/01/10 09:12:34;;;;;;;;;;;-4.70;99.90;;;;;;5084851;28;19928;-64
2024/01/10 09:15:00;;;;;;;;;;;-4.60;99.90;;;;;;5084745;28;20492;-64
2024/01/10 09:17:27;;;;;;;;;;;-4.60;99.90;;;;;;5089131;28;19934;-64
2024/01/10 09:19:53;;;;;;;;;;;-4.50;99.90;;;;;;5082466;28;19935;-64
2024/01/10 09:22:19;;;;;;;;;;;-4.50;99.90;;;;;;5084427;28;19945;-64
2024/01/10 09:24:44;;;;;;;;;;;-4.50;99.90;;;;;;5085592;28;19930;-64
2024/01/10 09:27:10;;;;;;;;;;;-4.40;99.90;;;;;;5076820;28;20287;-64
2024/01/10 09:29:36;;;;;;;;;;;-4.40;99.90;;;;;;5069517;28;19935;-64
2024/01/10 09:32:02;;;;;;;;;;;-4.30;99.90;;;;;;5087667;28;19938;-64
2024/01/10 09:34:28;;;;;;;;;;;-4.20;99.90;;;;;;5084848;28;19931;-64
2024/01/10 09:36:54;;;;;;;;;;;-4.20;99.90;;;;;;5067185;28;20060;-64
2024/01/10 09:39:19;;;;;;;;;;;-4.10;99.90;;;;;;5071559;28;21745;-64
2024/01/10 09:41:50;;;;;;;;;;;-4.10;99.90;;;;;;5042631;28;27809;-64
2024/01/10 09:44:17;;;;;;;;;;;-4.00;99.90;;;;;;5063108;28;19955;-64
2024/01/10 09:46:48;;;;;;;;;;;-3.90;99.90;;;;;;5056493;28;19931;-64
2024/01/10 09:49:13;;;;;;;;;;;-3.90;99.90;;;;;;5066893;28;19981;-64
2024/01/10 09:51:39;;;;;;;;;;;-3.80;99.90;;;;;;5059115;28;19928;-64
2024/01/10 09:54:05;;;;;;;;;;;-3.70;99.90;;;;;;5070545;28;20317;-64
2024/01/10 09:56:32;;;;;;;;;;;-3.60;99.90;;;;;;5074279;28;19927;-64
2024/01/10 09:58:58;;;;;;;;;;;-3.60;99.90;;;;;;5073718;28;19920;-64
2024/01/10 10:01:24;;;;;;;;;;;-3.50;99.90;;;;;;5069950;28;20006;-64
2024/01/10 10:03:50;;;;;;;;;;;-3.40;99.90;;;;;;5052921;28;19928;-64
2024/01/10 10:06:16;;;;;;;;;;;-3.30;99.90;;;;;;5078779;28;19931;-64
2024/01/10 10:08:42;;;;;;;;;;;-3.30;99.90;;;;;;5073511;28;20011;-64
2024/01/10 10:11:12;;;;;;;;;;;-3.20;99.90;;;;;;5061670;28;19924;-64
2024/01/10 10:13:41;;;;;;;;;;;-3.10;99.90;;;;;;5068282;28;20038;-64
2024/01/10 10:16:09;;;;;;;;;;;-2.90;99.90;;;;;;5079174;28;20385;-64
2024/01/10 10:18:35;;;;;;;;;;;-2.90;99.90;;;;;;5073570;28;19924;-64
2024/01/10 10:21:08;;;;;;;;;;;-2.70;99.90;;;;;;5074976;28;20443;-64
2024/01/10 10:23:35;;;;;;;;;;;-2.60;99.90;;;;;;5069987;28;19920;-64
2024/01/10 10:26:09;;;;;;;;;;;-2.50;99.90;;;;;;5055844;28;19928;-64
2024/01/10 10:28:35;;;;;;;;;;;-2.40;99.90;;;;;;5067796;28;19935;-64
2024/01/10 10:31:00;;;;;;;;;;;-2.30;99.90;;;;;;5050328;28;21485;-64
2024/01/10 10:33:26;;;;;;;;;;;-2.20;99.90;;;;;;5064155;28;19971;-64
2024/01/10 10:35:52;;;;;;;;;;;-2.10;99.90;;;;;;5072466;28;19998;-64
2024/01/10 10:38:17;;;;;;;;;;;-2.00;99.90;;;;;;5056009;28;19928;-64
2024/01/10 10:40:43;;;;;;;;;;;-1.90;99.90;;;;;;5107590;27;19946;-64
2024/01/10 10:43:12;;;;;;;;;;;-1.80;99.90;;;;;;5090743;28;19924;-64
2024/01/10 10:45:38;;;;;;;;;;;-1.70;99.90;;;;;;5093870;28;19923;-64
2024/01/10 10:48:06;;;;;;;;;;;-1.60;99.90;;;;;;5091015;28;19972;-64
2024/01/10 10:50:36;;;;;;;;;;;-1.60;99.90;;;;;;5087544;28;19939;-64
2024/01/10 10:53:03;;;;;;;;;;;-1.50;99.90;;;;;;5084545;28;19924;-64
2024/01/10 10:55:29;;;;;;;;;;;-1.40;99.90;;;;;;5096318;28;19930;-64
2024/01/10 10:57:55;;;;;;;;;;;-1.30;99.90;;;;;;5089980;28;20867;-64
2024/01/10 11:00:26;;;;;;;;;;;-1.20;99.90;;;;;;5089447;28;19924;-64
2024/01/10 11:02:55;;;;;;;;;;;-1.20;99.90;;;;;;5092926;28;20005;-64
2024/01/10 11:05:22;;;;;;;;;;;-1.20;99.90;;;;;;5090439;28;20015;-65
2024/01/10 11:07:48;;;;;;;;;;;-1.10;99.90;;;;;;5094827;28;20430;-64
2024/01/10 11:10:16;;;;;;;;;;;-1.00;99.90;;;;;;5092130;28;20386;-64
2024/01/10 11:13:02;;;;;;;;;;;-1.00;99.90;;;;;;5086498;28;19964;-65
2024/01/10 11:15:47;;;;;;;;;;;-0.90;99.90;;;;;;5093742;28;20427;-64
2024/01/10 11:18:31;;;;;;;;;;;-0.80;99.90;;;;;;5096539;28;19926;-64
2024/01/10 11:21:07;;;;;;;;;;;-0.80;99.90;;;;;;5105143;28;19966;-64
2024/01/10 11:23:59;;;;;;;;;;;-0.70;99.90;;;;;;5084709;28;19924;-64
2024/01/10 11:26:25;;;;;;;;;;;-0.80;99.90;;;;;;5088396;28;19920;-65
2024/01/10 11:28:50;;;;;;;;;;;-0.80;99.90;;;;;;5081935;28;20634;-65
2024/01/10 11:31:26;;;;;;;;;;;-0.80;99.90;;;;;;5089657;28;19958;-65
2024/01/10 11:33:52;;;;;;;;;;;-0.80;99.90;;;;;;5094668;28;19935;-65
2024/01/10 11:36:18;;;;;;;;;;;-0.80;99.90;;;;;;5077224;28;20594;-65
2024/01/10 11:38:44;;;;;;;;;;;-0.90;99.90;;;;;;5115040;27;19928;-65
2024/01/10 11:41:10;;;;;;;;;;;-0.90;99.90;;;;;;5088194;28;19931;-65
2024/01/10 11:43:36;;;;;;;;;;;-0.90;99.90;;;;;;5076274;28;20042;-65
2024/01/10 11:46:04;;;;;;;;;;;-0.90;99.90;;;;;;5080317;28;19920;-64
2024/01/10 11:48:33;;;;;;;;;;;-1.00;99.90;;;;;;5095862;28;20394;-65
2024/01/10 11:50:59;;;;;;;;;;;-1.00;99.90;;;;;;5099152;28;19920;-64
2024/01/10 11:53:46;;;;;;;;;;;-1.10;99.90;;;;;;5087328;28;20401;-65
2024/01/10 11:56:16;;;;;;;;;;;-1.10;99.90;;;;;;5089344;28;19945;-65
2024/01/10 11:58:54;;;;;;;;;;;-1.10;99.90;;;;;;5079985;28;19920;-65
2024/01/10 12:01:21;;;;;;;;;;;-1.20;99.90;;;;;;5072471;28;19923;-65
2024/01/10 12:03:46;;;;;;;;;;;-1.20;99.90;;;;;;5087338;28;19951;-65
2024/01/10 12:06:14;;;;;;;;;;;-1.20;99.90;;;;;;5093399;28;19924;-65
2024/01/10 12:08:39;;;;;;;;;;;-1.20;99.90;;;;;;5093004;28;19944;-65
2024/01/10 12:11:05;;;;;;;;;;;-1.20;99.90;;;;;;5087243;28;19928;-65
2024/01/10 12:13:32;;;;;;;;;;;-1.20;99.90;;;;;;5085219;28;19927;-65
2024/01/10 12:15:57;;;;;;;;;;;-1.20;99.90;;;;;;5084960;28;20355;-65
2024/01/10 12:18:23;;;;;;;;;;;-1.20;99.90;;;;;;5087117;27;19949;-65
2024/01/10 12:20:49;;;;;;;;;;;-1.20;99.90;;;;;;5095263;28;19931;-65
2024/01/10 12:23:15;;;;;;;;;;;-1.20;99.90;;;;;;5085204;28;19920;-65
2024/01/10 12:25:40;;;;;;;;;;;-1.20;99.90;;;;;;5083288;28;19924;-65
2024/01/10 12:28:06;;;;;;;;;;;-1.20;99.90;;;;;;5076358;28;19923;-65
2024/01/10 12:30:32;;;;;;;;;;;-1.20;99.90;;;;;;5086155;28;19924;-65
2024/01/10 12:33:01;;;;;;;;;;;-1.20;99.90;;;;;;5080715;28;20329;-65
2024/01/10 12:35:27;;;;;;;;;;;-1.20;99.90;;;;;;5086955;28;19928;-65
2024/01/10 12:37:56;;;;;;;;;;;-1.20;99.90;;;;;;5081913;27;20178;-65
2024/01/10 12:40:21;;;;;;;;;;;-1.20;99.90;;;;;;5064671;28;19954;-65
2024/01/10 12:42:47;;;;;;;;;;;-1.20;99.90;;;;;;5043603;28;19932;-65
2024/01/10 12:45:22;;;;;;;;;;;-1.10;99.90;;;;;;5066710;28;20254;-65
2024/01/10 12:47:48;;;;;;;;;;;-1.10;99.90;;;;;;5062805;28;20023;-65
2024/01/10 12:50:13;;;;;;;;;;;-1.10;99.90;;;;;;5049856;28;19980;-65
2024/01/10 12:52:42;;;;;;;;;;;-1.10;99.90;;;;;;5042059;28;19932;-65
2024/01/10 12:55:08;;;;;;;;;;;-1.00;99.90;;;;;;5086734;28;19977;-65
2024/01/10 12:57:33;;;;;;;;;;;-1.10;99.90;;;;;;5069651;28;20402;-65
2024/01/10 12:59:59;;;;;;;;;;;-1.00;99.90;;;;;;5074521;28;20440;-65
2024/01/10 13:02:25;;;;;;;;;;;-1.00;99.90;;;;;;5054944;28;20354;-65
2024/01/10 13:04:51;;;;;;;;;;;-0.90;99.90;;;;;;5075285;28;19923;-65
2024/01/10 13:07:17;;;;;;;;;;;-0.80;99.90;;;;;;5060568;28;20386;-65
2024/01/10 13:09:43;;;;;;;;;;;-0.80;99.90;;;;;;5053946;28;19931;-65
2024/01/10 13:12:08;;;;;;;;;;;-0.60;99.90;;;;;;5061260;28;20440;-65
2024/01/10 13:14:34;;;;;;;;;;;-0.50;99.90;;;;;;5064103;28;21870;-65
2024/01/10 13:17:00;;;;;;;;;;;-0.40;99.90;;;;;;5033988;28;20479;-65
2024/01/10 13:19:26;;;;;;;;;;;-0.30;99.90;;;;;;5068546;28;19920;-65
2024/01/10 13:21:53;;;;;;;;;;;-0.20;99.90;;;;;;5070009;28;19985;-65
2024/01/10 13:24:19;;;;;;;;;;;-0.10;99.90;;;;;;5065408;28;20339;-65
2024/01/10 13:26:44;;;;;;;;;;;0.00;99.90;;;;;;5068217;28;20318;-65
2024/01/10 13:29:10;;;;;;;;;;;0.10;99.90;;;;;;5049060;28;20526;-66
2024/01/10 13:31:36;;;;;;;;;;;0.10;99.90;;;;;;5056507;28;19932;-65
2024/01/10 13:34:04;;;;;;;;;;;0.20;99.90;;;;;;5053047;28;19928;-65
2024/01/10 13:36:30;;;;;;;;;;;0.10;99.90;;;;;;5060967;28;19945;-65
2024/01/10 13:38:56;;;;;;;;;;;0.20;99.90;;;;;;5078984;28;19928;-65
2024/01/10 13:41:21;;;;;;;;;;;0.10;99.90;;;;;;5079330;28;19924;-65
2024/01/10 13:43:47;;;;;;;;;;;0.10;99.90;;;;;;5075190;28;19924;-65
2024/01/10 13:46:13;;;;;;;;;;;0.10;99.90;;;;;;5072690;28;19923;-65
2024/01/10 13:48:38;;;;;;;;;;;0.10;99.90;;;;;;5060939;28;19939;-65
2024/01/10 13:51:04;;;;;;;;;;;0.00;99.90;;;;;;5090412;28;20297;-65
2024/01/10 13:53:29;;;;;;;;;;;-0.10;99.90;;;;;;5050529;28;19928;-65
2024/01/10 13:55:55;;;;;;;;;;;-0.20;99.90;;;;;;5068672;28;19946;-65
2024/01/10 13:58:23;;;;;;;;;;;-0.30;99.90;;;;;;5079527;28;19967;-65
2024/01/10 14:00:49;;;;;;;;;;;-0.50;99.90;;;;;;5077421;27;20023;-65
2024/01/10 14:03:16;;;;;;;;;;;-0.60;99.90;;;;;;5081343;28;19924;-65
2024/01/10 14:05:41;;;;;;;;;;;-0.60;99.90;;;;;;5081414;27;19956;-65
2024/01/10 14:08:08;;;;;;;;;;;-0.70;99.90;;;;;;5078828;28;19924;-65
2024/01/10 14:10:34;;;;;;;;;;;-0.80;99.90;;;;;;5082725;28;20018;-65
2024/01/10 14:13:00;;;;;;;;;;;-0.80;99.90;;;;;;5084763;28;19927;-65
2024/01/10 14:15:25;;;;;;;;;;;-0.90;99.90;;;;;;5068081;28;19935;-65
2024/01/10 14:17:51;;;;;;;;;;;-0.90;99.90;;;;;;5084352;28;20313;-65
2024/01/10 14:20:16;;;;;;;;;;;-1.00;99.90;;;;;;5082595;28;19924;-65
2024/01/10 14:22:42;;;;;;;;;;;-1.00;99.90;;;;;;5088849;28;20358;-65
2024/01/10 14:25:09;;;;;;;;;;;-1.00;99.90;;;;;;5067718;28;20789;-65
2024/01/10 14:27:35;;;;;;;;;;;-1.10;99.90;;;;;;5083134;28;20321;-65
2024/01/10 14:30:03;;;;;;;;;;;-1.10;99.90;;;;;;5071465;28;19928;-65
2024/01/10 14:32:29;;;;;;;;;;;-1.00;99.90;;;;;;5086855;28;21175;-65
2024/01/10 14:34:55;;;;;;;;;;;-1.10;99.90;;;;;;5088897;28;19924;-65
2024/01/10 14:37:21;;;;;;;;;;;-1.10;99.90;;;;;;5068327;28;19919;-65
2024/01/10 14:39:46;;;;;;;;;;;-1.20;99.90;;;;;;5076771;28;20309;-65
2024/01/10 14:42:13;;;;;;;;;;;-1.20;99.90;;;;;;5088531;28;19920;-65
2024/01/10 14:44:40;;;;;;;;;;;-1.20;99.90;;;;;;5091339;28;20409;-65
2024/01/10 14:47:06;;;;;;;;;;;-1.20;99.90;;;;;;5092681;28;19943;-65
2024/01/10 14:49:32;;;;;;;;;;;-1.30;99.90;;;;;;5073934;28;20015;-65
2024/01/10 14:51:58;;;;;;;;;;;-1.30;99.90;;;;;;5072606;28;20034;-65
2024/01/10 14:54:23;;;;;;;;;;;-1.30;99.90;;;;;;5079386;28;19919;-65
2024/01/10 14:56:49;;;;;;;;;;;-1.30;99.90;;;;;;5068774;28;20439;-65
2024/01/10 14:59:15;;;;;;;;;;;-1.40;99.90;;;;;;5070122;28;19926;-65
2024/01/10 15:01:47;;;;;;;;;;;-1.40;99.90;;;;;;5075909;28;19975;-65
2024/01/10 15:04:13;;;;;;;;;;;-1.40;99.90;;;;;;5067159;28;20489;-65
2024/01/10 15:06:42;;;;;;;;;;;-1.40;99.90;;;;;;5088874;28;19927;-66
2024/01/10 15:09:09;;;;;;;;;;;-1.40;99.90;;;;;;5086779;28;19923;-65
2024/01/10 15:11:35;;;;;;;;;;;-1.30;99.90;;;;;;5062030;28;19920;-65
2024/01/10 15:14:01;;;;;;;;;;;-1.50;99.90;;;;;;5078224;27;20381;-65
2024/01/10 15:16:26;;;;;;;;;;;-1.50;99.90;;;;;;5086755;27;19927;-65
2024/01/10 15:18:52;;;;;;;;;;;-1.50;99.90;;;;;;5078875;27;20011;-65
2024/01/10 15:21:19;;;;;;;;;;;-1.50;99.90;;;;;;5092705;27;19927;-65
2024/01/10 15:23:45;;;;;;;;;;;-1.60;99.90;;;;;;5092350;27;19931;-65
2024/01/10 15:26:20;;;;;;;;;;;-1.60;99.90;;;;;;5077247;27;19919;-65
2024/01/10 15:28:48;;;;;;;;;;;-1.60;99.90;;;;;;5078024;27;19963;-65
2024/01/10 15:31:17;;;;;;;;;;;-1.70;99.90;;;;;;5083637;27;19939;-65
2024/01/10 15:33:42;;;;;;;;;;;-1.70;99.90;;;;;;5087765;27;20015;-65
2024/01/10 15:36:11;;;;;;;;;;;-1.70;99.90;;;;;;5088095;27;19929;-65
2024/01/10 15:38:39;;;;;;;;;;;-1.80;99.90;;;;;;5085297;27;19928;-65
2024/01/10 15:41:06;;;;;;;;;;;-1.80;99.90;;;;;;5070334;27;19931;-65
2024/01/10 15:43:32;;;;;;;;;;;-1.90;99.90;;;;;;5092002;27;19920;-65
2024/01/10 15:45:57;;;;;;;;;;;-1.90;99.90;;;;;;5061956;27;20696;-65
2024/01/10 15:48:23;;;;;;;;;;;-1.90;99.90;;;;;;5094627;27;19923;-65
2024/01/10 15:50:49;;;;;;;;;;;-2.00;99.90;;;;;;5055600;27;19938;-65
2024/01/10 15:53:16;;;;;;;;;;;-2.00;99.90;;;;;;5084503;27;19981;-65